Time;durP1;ratioP1;P1;durP2;ratioP2;P2;SDS_P1;SDS_P2;PMS_P1;PMS_P2;Temp;Humidity;BMP_temperature;BMP_pressure;BME280_temperature;BME280_humidity;BME280_pressure;Samples;Min_cycle;Max_cycle;Signal;HPM_P1;HPM_P2
2022/11/26 00:00:26;;;;;;;14.60;13.03;;;7.90;99.90;;;;;;5031567;28;20652;-56
2022/11/26 00:02:53;;;;;;;14.20;12.70;;;7.40;99.90;;;;;;5031579;28;20223;-57
2022/11/26 00:05:20;;;;;;;14.83;13.00;;;7.10;99.90;;;;;;5031045;28;20171;-57
2022/11/26 00:07:55;;;;;;;17.77;14.20;;;6.90;99.90;;;;;;5031394;28;20172;-56
2022/11/26 00:10:34;;;;;;;15.70;13.83;;;6.90;99.90;;;;;;5030421;28;20171;-52
2022/11/26 00:13:00;;;;;;;15.20;12.60;;;7.00;99.90;;;;;;5031560;28;20821;-58
2022/11/26 00:15:28;;;;;;;15.33;13.70;;;7.30;99.90;;;;;;5030916;28;20283;-58
2022/11/26 00:17:55;;;;;;;20.07;14.03;;;7.50;99.90;;;;;;5031384;28;20172;-59
2022/11/26 00:20:29;;;;;;;18.03;14.23;;;7.80;99.90;;;;;;5031231;28;20203;-56
2022/11/26 00:22:57;;;;;;;15.27;13.33;;;8.00;99.90;;;;;;5030235;28;20203;-56
2022/11/26 00:25:25;;;;;;;16.37;13.23;;;8.20;99.90;;;;;;5032303;28;20168;-57
2022/11/26 00:27:56;;;;;;;16.30;14.47;;;8.20;99.90;;;;;;5030904;28;20649;-53
2022/11/26 00:30:24;;;;;;;15.97;14.27;;;7.80;99.90;;;;;;5031326;28;20186;-58
2022/11/26 00:32:51;;;;;;;18.23;14.50;;;8.20;99.90;;;;;;5030904;28;20187;-54
2022/11/26 00:35:17;;;;;;;16.17;14.27;;;7.90;99.90;;;;;;5030799;28;20639;-59
2022/11/26 00:37:55;;;;;;;21.80;15.60;;;7.80;99.90;;;;;;5030910;28;20234;-55
2022/11/26 00:40:32;;;;;;;17.20;14.37;;;7.60;99.90;;;;;;5031236;28;20171;-57
2022/11/26 00:42:58;;;;;;;17.13;14.67;;;7.50;99.90;;;;;;5030851;28;20266;-54
2022/11/26 00:45:28;;;;;;;20.60;15.90;;;7.60;99.90;;;;;;5030846;28;20485;-54
2022/11/26 00:47:56;;;;;;;17.03;14.80;;;7.60;99.90;;;;;;5029502;28;20176;-57
2022/11/26 00:50:25;;;;;;;18.13;14.07;;;7.30;99.90;;;;;;5030983;28;20178;-57
2022/11/26 00:52:53;;;;;;;17.73;15.53;;;7.40;99.90;;;;;;5029983;28;20595;-58
2022/11/26 00:55:37;;;;;;;17.00;14.73;;;7.50;99.90;;;;;;5030209;28;20198;-59
2022/11/26 00:58:05;;;;;;;15.53;13.93;;;7.50;99.90;;;;;;5030911;28;20176;-56
2022/11/26 01:00:33;;;;;;;16.13;14.37;;;8.10;99.90;;;;;;5030757;28;20679;-59
2022/11/26 01:02:59;;;;;;;15.87;14.17;;;8.10;99.90;;;;;;5030876;28;20187;-55
2022/11/26 01:05:29;;;;;;;17.67;14.20;;;8.00;99.90;;;;;;5030231;28;20176;-58
2022/11/26 01:07:59;;;;;;;18.43;15.10;;;8.00;99.90;;;;;;5029893;28;20188;-56
2022/11/26 01:10:27;;;;;;;17.67;15.33;;;7.30;99.90;;;;;;5031860;28;20179;-58
2022/11/26 01:12:54;;;;;;;19.00;15.80;;;7.50;99.90;;;;;;5034697;28;20196;-57
2022/11/26 01:15:23;;;;;;;16.80;14.93;;;7.40;99.90;;;;;;5034096;28;20829;-60
2022/11/26 01:17:50;;;;;;;18.20;15.83;;;7.30;99.90;;;;;;5034713;28;20505;-58
2022/11/26 01:20:29;;;;;;;18.20;15.73;;;7.40;99.90;;;;;;5034059;28;20171;-54
2022/11/26 01:22:56;;;;;;;17.77;15.30;;;7.40;99.90;;;;;;5033619;28;20200;-57
2022/11/26 01:25:23;;;;;;;15.67;14.00;;;7.40;99.90;;;;;;5034181;28;20172;-54
2022/11/26 01:27:50;;;;;;;17.10;14.77;;;7.50;99.90;;;;;;5034336;28;20176;-54
2022/11/26 01:30:20;;;;;;;18.57;15.73;;;7.50;99.90;;;;;;5034460;28;20188;-56
2022/11/26 01:32:47;;;;;;;17.23;15.43;;;7.50;99.90;;;;;;5033926;28;20226;-59
2022/11/26 01:35:13;;;;;;;16.30;14.63;;;7.60;99.90;;;;;;5034040;28;20544;-58
2022/11/26 01:37:39;;;;;;;16.23;14.40;;;7.50;99.90;;;;;;5033893;28;20168;-56
2022/11/26 01:40:37;;;;;;;16.00;14.30;;;7.40;99.90;;;;;;5034351;28;20164;-57
2022/11/26 01:43:09;;;;;;;15.43;13.83;;;7.50;99.90;;;;;;5033665;28;20298;-57
2022/11/26 01:45:35;;;;;;;15.70;14.03;;;7.60;99.90;;;;;;5033956;28;20171;-56
2022/11/26 01:48:01;;;;;;;14.97;13.37;;;7.80;99.90;;;;;;5033845;28;20612;-59
2022/11/26 01:50:35;;;;;;;15.83;14.17;;;7.80;99.90;;;;;;5034129;28;20168;-58
2022/11/26 01:53:03;;;;;;;15.70;14.07;;;7.70;99.90;;;;;;5033045;28;20260;-58
2022/11/26 01:55:43;;;;;;;15.50;13.90;;;7.60;99.90;;;;;;5033652;28;20231;-58
2022/11/26 01:58:12;;;;;;;16.60;14.80;;;7.60;99.90;;;;;;5033796;28;20655;-57
2022/11/26 02:00:38;;;;;;;16.60;14.83;;;7.50;99.90;;;;;;5034037;28;20247;-58
2022/11/26 02:03:05;;;;;;;15.67;13.63;;;7.80;99.90;;;;;;5033781;28;20188;-59
2022/11/26 02:05:35;;;;;;;15.97;14.27;;;7.80;99.90;;;;;;5033220;28;20218;-57
2022/11/26 02:08:02;;;;;;;15.13;13.63;;;8.00;99.90;;;;;;5033137;28;20168;-59
2022/11/26 02:10:27;;;;;;;15.23;13.70;;;8.00;99.90;;;;;;5033570;28;20175;-54
2022/11/26 02:12:53;;;;;;;15.07;13.37;;;8.00;99.90;;;;;;5033680;28;20192;-58
2022/11/26 02:15:22;;;;;;;14.33;12.83;;;8.00;99.90;;;;;;5032848;28;20578;-55
2022/11/26 02:17:56;;;;;;;15.90;13.77;;;9.00;99.90;;;;;;5033614;28;20168;-56
2022/11/26 02:20:59;;;;;;;14.67;13.17;;;8.30;99.90;;;;;;5033206;28;20254;-57
2022/11/26 02:24:02;;;;;;;15.10;12.97;;;8.50;99.90;;;;;;5033355;28;20207;-58
2022/11/26 02:26:48;;;;;;;16.40;13.00;;;8.60;99.90;;;;;;5033075;28;20175;-59
2022/11/26 02:29:24;;;;;;;15.27;13.50;;;8.20;99.90;;;;;;5033429;28;20176;-55
2022/11/26 02:32:10;;;;;;;16.03;13.60;;;8.00;99.90;;;;;;5033185;28;20164;-55
2022/11/26 02:34:35;;;;;;;15.63;13.90;;;7.80;99.90;;;;;;4971633;28;20225;-59
2022/11/26 02:37:13;;;;;;;15.60;14.00;;;7.80;99.90;;;;;;4971405;28;20285;-55
2022/11/26 02:39:39;;;;;;;15.43;13.00;;;7.80;99.90;;;;;;4972205;28;20181;-54
2022/11/26 02:42:32;;;;;;;15.83;13.17;;;7.90;99.90;;;;;;4971774;28;20225;-55
2022/11/26 02:45:15;;;;;;;15.77;13.97;;;8.00;99.90;;;;;;4971778;28;20174;-58
2022/11/26 02:47:43;;;;;;;14.20;12.70;;;8.20;99.90;;;;;;4971672;28;20185;-56
2022/11/26 02:50:14;;;;;;;14.47;12.80;;;8.20;99.90;;;;;;4971704;28;20173;-57
2022/11/26 02:52:41;;;;;;;15.37;12.20;;;8.10;99.90;;;;;;4971356;28;20205;-56
2022/11/26 02:55:10;;;;;;;13.97;12.37;;;8.00;99.90;;;;;;4971531;28;20325;-58
2022/11/26 02:57:44;;;;;;;15.43;12.53;;;7.80;99.90;;;;;;4971475;28;20257;-58
2022/11/26 03:00:10;;;;;;;16.53;13.87;;;7.80;99.90;;;;;;4971674;28;20172;-55
2022/11/26 03:02:43;;;;;;;16.97;13.90;;;7.80;99.90;;;;;;4971445;28;20214;-55
2022/11/26 03:05:11;;;;;;;15.07;13.07;;;7.60;99.90;;;;;;4971075;28;20186;-56
2022/11/26 03:07:38;;;;;;;18.87;13.93;;;7.70;99.90;;;;;;4970735;28;20590;-55
2022/11/26 03:10:04;;;;;;;17.47;13.90;;;7.40;99.90;;;;;;4971064;28;20174;-57
2022/11/26 03:12:30;;;;;;;17.63;14.27;;;7.40;99.90;;;;;;5022499;28;20187;-58
2022/11/26 03:14:56;;;;;;;16.93;13.77;;;7.30;99.90;;;;;;5031901;28;20261;-58
2022/11/26 03:17:21;;;;;;;14.77;13.13;;;7.30;99.90;;;;;;5032465;28;20211;-59
2022/11/26 03:19:47;;;;;;;16.30;13.77;;;7.20;99.90;;;;;;5032260;28;20206;-59
2022/11/26 03:22:14;;;;;;;15.30;13.53;;;7.40;99.90;;;;;;5032103;28;20269;-56
2022/11/26 03:24:40;;;;;;;16.33;13.60;;;7.40;99.90;;;;;;5031886;28;20187;-58
2022/11/26 03:27:06;;;;;;;14.27;12.70;;;7.50;99.90;;;;;;5032248;28;20489;-52
2022/11/26 03:29:32;;;;;;;17.40;12.90;;;7.50;99.90;;;;;;5032122;28;20182;-59
2022/11/26 03:31:58;;;;;;;16.10;12.90;;;7.50;99.90;;;;;;5031945;28;20203;-55
2022/11/26 03:34:24;;;;;;;16.63;13.57;;;7.40;99.90;;;;;;5031176;28;20231;-56
2022/11/26 03:36:49;;;;;;;15.73;13.57;;;7.30;99.90;;;;;;5030844;28;20273;-59
2022/11/26 03:39:15;;;;;;;14.83;12.10;;;7.40;99.90;;;;;;5032187;28;20202;-59
2022/11/26 03:41:43;;;;;;;13.33;11.87;;;7.50;99.90;;;;;;5031821;28;20172;-59
2022/11/26 03:44:10;;;;;;;12.30;10.73;;;7.40;99.90;;;;;;5031568;28;20195;-59
2022/11/26 03:46:36;;;;;;;15.33;10.90;;;7.40;99.90;;;;;;5031553;28;20612;-57
2022/11/26 03:49:02;;;;;;;15.63;11.57;;;7.50;99.90;;;;;;5031940;28;20172;-58
2022/11/26 03:51:27;;;;;;;12.37;10.90;;;7.70;99.90;;;;;;5030880;28;20589;-58
2022/11/26 03:53:53;;;;;;;14.30;11.70;;;7.70;99.90;;;;;;5031134;28;20703;-58
2022/11/26 03:56:19;;;;;;;12.40;11.10;;;7.80;99.90;;;;;;5031602;28;20211;-55
2022/11/26 03:58:44;;;;;;;11.63;10.33;;;7.60;99.90;;;;;;5031478;28;20234;-59
2022/11/26 04:01:11;;;;;;;13.07;10.10;;;7.90;99.90;;;;;;5030362;28;20261;-58
2022/11/26 04:03:38;;;;;;;13.23;11.13;;;8.00;99.90;;;;;;5031063;28;20203;-58
2022/11/26 04:06:04;;;;;;;10.77;9.37;;;;;;;;;;5031342;28;20182;-59
2022/11/26 04:08:29;;;;;;;12.60;10.07;;;7.90;99.90;;;;;;5031271;28;20172;-56
2022/11/26 04:10:55;;;;;;;11.40;10.30;;;7.90;99.90;;;;;;5031460;28;20179;-58
2022/11/26 04:13:21;;;;;;;11.07;9.87;;;7.90;99.90;;;;;;5031106;28;20227;-58
2022/11/26 04:15:47;;;;;;;10.23;9.00;;;8.00;99.90;;;;;;5031170;28;20533;-59
2022/11/26 04:18:13;;;;;;;11.60;9.93;;;8.50;99.90;;;;;;5031521;28;20172;-56
2022/11/26 04:20:39;;;;;;;11.57;9.70;;;8.40;99.90;;;;;;5031265;28;20168;-57
2022/11/26 04:23:04;;;;;;;11.57;9.50;;;8.30;99.90;;;;;;5030361;28;20199;-58
2022/11/26 04:25:30;;;;;;;10.70;9.60;;;8.20;99.90;;;;;;5030675;28;20253;-57
2022/11/26 04:27:56;;;;;;;10.20;9.10;;;8.20;99.90;;;;;;5031483;28;20238;-55
2022/11/26 04:30:22;;;;;;;11.97;9.30;;;7.80;99.90;;;;;;5031039;28;20178;-58
2022/11/26 04:32:47;;;;;;;12.43;9.50;;;8.00;99.90;;;;;;5031112;28;20192;-57
2022/11/26 04:35:13;;;;;;;11.60;9.83;;;8.20;99.90;;;;;;5030461;28;20234;-55
2022/11/26 04:37:39;;;;;;;10.70;9.40;;;8.20;99.90;;;;;;5030983;28;20172;-55
2022/11/26 04:40:05;;;;;;;12.50;9.53;;;8.10;99.90;;;;;;5031239;28;20251;-55
2022/11/26 04:42:30;;;;;;;11.40;9.53;;;8.00;99.90;;;;;;5030930;28;20267;-58
2022/11/26 04:44:57;;;;;;;10.57;9.57;;;7.80;99.90;;;;;;5031379;28;20212;-54
2022/11/26 04:47:22;;;;;;;11.43;9.63;;;7.80;99.90;;;;;;5035022;28;20207;-55
2022/11/26 04:49:48;;;;;;;11.03;9.93;;;7.50;99.90;;;;;;5035353;28;20202;-57
2022/11/26 04:52:13;;;;;;;12.13;10.00;;;7.60;99.90;;;;;;5034567;28;20637;-57
2022/11/26 04:54:39;;;;;;;11.47;9.57;;;7.70;99.90;;;;;;5033498;28;20200;-57
2022/11/26 04:57:04;;;;;;;12.67;10.10;;;8.10;99.90;;;;;;5034766;28;20170;-58
2022/11/26 04:59:30;;;;;;;10.73;9.63;;;8.30;99.90;;;;;;5035130;28;20660;-57
2022/11/26 05:01:55;;;;;;;11.93;10.00;;;8.50;99.90;;;;;;5034955;28;20562;-54
2022/11/26 05:04:21;;;;;;;13.57;10.17;;;8.60;99.90;;;;;;5034433;28;20223;-54
2022/11/26 05:06:47;;;;;;;10.60;8.37;;;8.40;99.90;;;;;;5034353;28;20186;-58
2022/11/26 05:09:12;;;;;;;11.13;9.30;;;8.40;99.90;;;;;;5034656;28;20843;-56
2022/11/26 05:11:38;;;;;;;12.67;10.33;;;8.40;99.90;;;;;;5034890;28;20526;-55
2022/11/26 05:14:03;;;;;;;11.40;9.27;;;8.30;99.90;;;;;;5034026;28;20223;-55
2022/11/26 05:16:29;;;;;;;12.67;10.20;;;8.20;99.90;;;;;;5034621;28;20172;-54
2022/11/26 05:18:55;;;;;;;12.47;10.67;;;8.20;99.90;;;;;;5032089;28;20171;-57
2022/11/26 05:21:20;;;;;;;12.37;10.30;;;8.20;99.90;;;;;;5033383;28;20172;-57
2022/11/26 05:23:46;;;;;;;14.77;11.30;;;8.10;99.90;;;;;;5032281;28;20787;-59
2022/11/26 05:26:12;;;;;;;13.80;10.57;;;8.30;99.90;;;;;;5031975;28;20183;-58
2022/11/26 05:28:37;;;;;;;12.33;10.87;;;8.50;99.90;;;;;;5034330;28;20514;-57
2022/11/26 05:31:03;;;;;;;13.43;10.00;;;8.80;99.90;;;;;;5033459;28;20172;-58
2022/11/26 05:33:29;;;;;;;13.57;10.80;;;8.80;99.90;;;;;;5034074;28;20672;-58
2022/11/26 05:35:55;;;;;;;12.10;10.47;;;9.10;99.90;;;;;;5033623;28;20164;-56
2022/11/26 05:38:21;;;;;;;11.87;10.57;;;8.70;99.90;;;;;;5033951;28;20190;-58
2022/11/26 05:40:47;;;;;;;13.10;10.37;;;9.00;99.90;;;;;;5034123;28;20203;-56
2022/11/26 05:43:12;;;;;;;12.40;10.53;;;8.60;99.90;;;;;;5034276;28;20211;-53
2022/11/26 05:45:38;;;;;;;14.37;10.03;;;8.70;99.90;;;;;;5033781;28;20250;-58
2022/11/26 05:48:04;;;;;;;11.50;9.83;;;8.30;99.90;;;;;;5033976;28;20214;-59
2022/11/26 05:50:31;;;;;;;14.00;11.07;;;8.00;99.90;;;;;;5034061;28;20175;-56
2022/11/26 05:52:56;;;;;;;11.87;9.80;;;7.80;99.90;;;;;;5033885;28;20188;-59
2022/11/26 05:55:22;;;;;;;12.07;9.73;;;8.00;99.90;;;;;;5033606;28;20195;-58
2022/11/26 05:57:48;;;;;;;13.97;9.50;;;8.20;99.90;;;;;;5033510;28;20175;-53
2022/11/26 06:00:14;;;;;;;11.87;9.73;;;7.70;99.90;;;;;;5033916;28;20172;-56
2022/11/26 06:02:39;;;;;;;12.27;9.17;;;7.70;99.90;;;;;;5033511;28;20214;-59
2022/11/26 06:05:05;;;;;;;12.87;10.03;;;7.50;99.90;;;;;;5033489;28;20179;-57
2022/11/26 06:07:31;;;;;;;13.87;9.30;;;7.50;99.90;;;;;;5032493;28;20649;-58
2022/11/26 06:09:56;;;;;;;11.40;10.03;;;7.60;99.90;;;;;;5033715;28;20194;-55
2022/11/26 06:12:22;;;;;;;10.40;9.13;;;7.70;99.90;;;;;;5033509;28;20168;-58
2022/11/26 06:14:48;;;;;;;12.87;9.77;;;7.70;99.90;;;;;;5032065;28;20250;-55
2022/11/26 06:17:13;;;;;;;11.27;9.47;;;8.00;99.90;;;;;;5033624;28;20171;-53
2022/11/26 06:19:39;;;;;;;11.27;9.53;;;8.00;99.90;;;;;;5033341;28;20172;-56
2022/11/26 06:22:04;;;;;;;10.10;9.10;;;7.80;99.90;;;;;;5032648;28;20580;-57
2022/11/26 06:24:30;;;;;;;10.07;8.53;;;7.70;99.90;;;;;;5033700;28;20298;-57
2022/11/26 06:26:55;;;;;;;10.47;9.37;;;7.70;99.90;;;;;;5033342;28;20187;-57
2022/11/26 06:29:21;;;;;;;11.60;9.13;;;7.70;99.90;;;;;;5032058;28;20176;-58
2022/11/26 06:31:46;;;;;;;13.87;9.63;;;7.80;99.90;;;;;;5028736;28;20541;-55
2022/11/26 06:34:14;;;;;;;11.57;10.10;;;7.80;99.90;;;;;;5032289;28;20227;-57
2022/11/26 06:36:39;;;;;;;12.43;10.27;;;7.80;99.90;;;;;;5032970;28;20171;-57
2022/11/26 06:39:05;;;;;;;12.37;9.73;;;8.20;99.90;;;;;;5033202;28;20193;-57
2022/11/26 06:41:30;;;;;;;11.67;9.43;;;8.00;99.90;;;;;;5032872;28;20168;-59
2022/11/26 06:43:58;;;;;;;11.07;9.77;;;8.00;99.90;;;;;;5032737;28;20599;-53
2022/11/26 06:46:24;;;;;;;12.40;9.43;;;7.90;99.90;;;;;;5032483;28;20553;-57
2022/11/26 06:48:49;;;;;;;11.53;9.00;;;7.80;99.90;;;;;;5032760;28;20182;-59
2022/11/26 06:51:16;;;;;;;13.70;10.30;;;8.00;99.90;;;;;;5032571;28;20176;-57
2022/11/26 06:53:42;;;;;;;11.33;9.50;;;7.90;99.90;;;;;;5032424;28;20203;-56
2022/11/26 06:56:11;;;;;;;10.27;9.27;;;;;;;;;;5019986;28;20542;-59
2022/11/26 06:58:37;;;;;;;11.30;9.07;;;;;;;;;;5013901;28;20256;-55
2022/11/26 07:01:11;;;;;;;10.67;8.20;;;7.90;99.90;;;;;;5014445;28;20723;-58
2022/11/26 07:03:37;;;;;;;12.40;9.53;;;7.90;99.90;;;;;;5013501;28;20197;-55
2022/11/26 07:06:03;;;;;;;10.87;9.10;;;7.80;99.90;;;;;;5022661;28;20208;-57
2022/11/26 07:08:29;;;;;;;13.43;9.97;;;7.60;99.90;;;;;;5030090;28;20569;-57
2022/11/26 07:10:54;;;;;;;10.80;9.27;;;7.60;99.90;;;;;;5032680;28;20184;-54
2022/11/26 07:13:20;;;;;;;11.97;9.77;;;7.50;99.90;;;;;;5031979;28;20687;-58
2022/11/26 07:15:45;;;;;;;11.07;9.00;;;7.40;99.90;;;;;;5032379;28;20206;-53
2022/11/26 07:18:11;;;;;;;13.27;9.77;;;7.20;99.90;;;;;;5032291;28;20172;-58
2022/11/26 07:20:37;;;;;;;20.77;11.67;;;7.10;99.90;;;;;;5031853;28;20176;-56
2022/11/26 07:23:03;;;;;;;23.40;10.27;;;7.00;99.90;;;;;;5030973;28;20214;-56
2022/11/26 07:25:29;;;;;;;10.93;9.83;;;6.90;99.90;;;;;;5034185;28;20172;-56
2022/11/26 07:27:55;;;;;;;11.47;9.93;;;6.80;99.90;;;;;;5032282;28;20172;-59
2022/11/26 07:30:20;;;;;;;12.90;10.23;;;7.30;99.90;;;;;;5031180;28;20213;-56
2022/11/26 07:32:46;;;;;;;12.30;9.83;;;7.40;99.90;;;;;;5021050;28;20200;-57
2022/11/26 07:35:12;;;;;;;11.27;8.70;;;7.50;99.90;;;;;;5025076;28;20206;-56
2022/11/26 07:37:37;;;;;;;9.57;8.57;;;7.70;99.90;;;;;;5027133;28;20184;-58
2022/11/26 07:40:05;;;;;;;9.70;7.77;;;7.90;99.90;;;;;;5014446;28;20187;-57
2022/11/26 07:42:31;;;;;;;8.63;7.67;;;7.90;99.90;;;;;;5011689;28;20176;-55
2022/11/26 07:44:57;;;;;;;9.63;7.53;;;7.90;99.90;;;;;;5019223;28;20262;-55
2022/11/26 07:47:23;;;;;;;9.07;7.33;;;8.10;99.90;;;;;;5012796;28;20243;-57
2022/11/26 07:49:49;;;;;;;7.63;6.73;;;8.20;99.90;;;;;;5023173;28;20191;-56
2022/11/26 07:52:14;;;;;;;7.70;6.80;;;8.90;99.90;;;;;;5021815;28;20274;-59
2022/11/26 07:54:40;;;;;;;8.33;6.43;;;8.90;99.90;;;;;;5015748;28;20203;-55
2022/11/26 07:57:07;;;;;;;9.33;6.67;;;9.10;99.90;;;;;;5011860;28;20224;-57
2022/11/26 07:59:32;;;;;;;9.03;6.60;;;9.00;99.90;;;;;;5011500;28;20250;-57
2022/11/26 08:01:58;;;;;;;9.23;7.27;;;8.90;99.90;;;;;;5011974;28;20653;-58
2022/11/26 08:04:23;;;;;;;9.03;7.03;;;8.80;99.90;;;;;;5011025;28;20673;-58
2022/11/26 08:06:49;;;;;;;8.67;7.60;;;8.70;99.90;;;;;;5010757;28;20616;-56
2022/11/26 08:09:14;;;;;;;8.20;7.27;;;8.40;99.90;;;;;;5010889;28;20181;-57
2022/11/26 08:11:40;;;;;;;8.37;7.50;;;8.30;99.90;;;;;;5010672;28;20553;-59
2022/11/26 08:14:10;;;;;;;10.47;7.47;;;8.70;99.90;;;;;;5011173;28;20315;-58
2022/11/26 08:16:36;;;;;;;8.67;7.77;;;9.10;99.90;;;;;;5011293;28;20183;-56
2022/11/26 08:19:05;;;;;;;9.80;7.20;;;9.00;99.90;;;;;;4994103;28;20176;-55
2022/11/26 08:21:31;;;;;;;8.87;7.50;;;9.00;99.90;;;;;;5011136;28;20254;-53
2022/11/26 08:23:57;;;;;;;8.70;7.07;;;9.00;99.90;;;;;;5011260;28;20657;-55
2022/11/26 08:26:24;;;;;;;9.73;7.43;;;9.10;99.90;;;;;;5011443;28;20177;-57
2022/11/26 08:28:50;;;;;;;10.10;8.03;;;9.00;99.90;;;;;;5011796;28;20176;-54
2022/11/26 08:31:16;;;;;;;12.87;8.70;;;8.50;99.90;;;;;;5011488;28;20788;-59
2022/11/26 08:33:43;;;;;;;9.07;7.97;;;8.20;99.90;;;;;;5011070;28;20579;-58
2022/11/26 08:36:10;;;;;;;12.17;8.90;;;7.90;99.90;;;;;;5011027;28;20169;-55
2022/11/26 08:38:36;;;;;;;11.80;8.93;;;7.90;99.90;;;;;;5015707;28;20259;-57
2022/11/26 08:41:05;;;;;;;11.00;8.63;;;8.00;99.90;;;;;;5031148;28;20182;-52
2022/11/26 08:43:31;;;;;;;12.47;9.43;;;8.10;99.90;;;;;;5029264;28;20271;-54
2022/11/26 08:45:58;;;;;;;10.67;8.80;;;8.10;99.90;;;;;;5030955;28;20180;-59
2022/11/26 08:48:25;;;;;;;10.83;9.23;;;8.30;99.90;;;;;;5030506;28;20180;-53
2022/11/26 08:50:55;;;;;;;11.90;9.20;;;8.00;99.90;;;;;;5031056;28;20525;-57
2022/11/26 08:53:21;;;;;;;12.57;9.03;;;8.00;99.90;;;;;;5030119;28;20188;-54
2022/11/26 08:55:46;;;;;;;12.07;9.63;;;8.00;99.90;;;;;;5030748;28;20668;-54
2022/11/26 08:58:12;;;;;;;13.60;10.60;;;7.90;99.90;;;;;;5031022;28;20581;-55
2022/11/26 09:00:37;;;;;;;15.00;10.83;;;8.00;99.90;;;;;;5030697;28;20183;-58
2022/11/26 09:03:03;;;;;;;13.30;10.00;;;8.20;99.90;;;;;;5029700;28;20204;-54
2022/11/26 09:05:29;;;;;;;13.87;11.40;;;8.10;99.90;;;;;;5030162;28;20168;-56
2022/11/26 09:07:54;;;;;;;13.10;10.50;;;8.10;99.90;;;;;;5030112;28;20602;-59
2022/11/26 09:10:20;;;;;;;14.70;11.10;;;8.10;99.90;;;;;;5030481;28;20180;-57
2022/11/26 09:12:45;;;;;;;15.00;10.40;;;8.10;99.90;;;;;;5030903;28;20195;-58
2022/11/26 09:15:11;;;;;;;15.87;10.77;;;8.00;99.90;;;;;;5030167;28;20207;-58
2022/11/26 09:17:36;;;;;;;13.97;10.57;;;8.00;99.90;;;;;;5030713;28;20179;-58
2022/11/26 09:20:02;;;;;;;15.27;10.60;;;8.30;99.90;;;;;;5030778;28;20172;-58
2022/11/26 09:22:28;;;;;;;14.87;10.57;;;8.70;99.90;;;;;;5030201;28;21417;-57
2022/11/26 09:24:54;;;;;;;17.60;11.47;;;8.50;99.90;;;;;;5030501;28;20172;-57
2022/11/26 09:27:19;;;;;;;14.57;10.70;;;8.50;99.90;;;;;;5030383;28;20179;-58
2022/11/26 09:29:45;;;;;;;13.17;9.93;;;8.30;99.90;;;;;;5030739;28;20683;-59
2022/11/26 09:32:10;;;;;;;13.53;10.17;;;8.10;99.90;;;;;;5032845;28;20536;-59
2022/11/26 09:34:37;;;;;;;14.23;10.43;;;8.60;99.90;;;;;;5034000;28;20226;-56
2022/11/26 09:37:02;;;;;;;15.47;10.30;;;8.00;99.90;;;;;;5033189;28;20226;-57
2022/11/26 09:39:28;;;;;;;12.60;10.47;;;8.00;99.90;;;;;;5034310;28;20544;-59
2022/11/26 09:42:10;;;;;;;14.80;10.57;;;8.00;99.90;;;;;;5034321;28;20258;-55
2022/11/26 09:45:03;;;;;;;14.47;10.30;;;8.20;99.90;;;;;;5033665;28;20184;-56
2022/11/26 09:47:39;;;;;;;15.33;10.77;;;8.00;99.90;;;;;;5034217;28;20168;-58
2022/11/26 09:50:05;;;;;;;14.90;10.97;;;8.10;99.90;;;;;;5033962;28;20645;-56
2022/11/26 09:52:55;;;;;;;13.53;10.87;;;8.00;99.90;;;;;;5033162;28;20179;-59
2022/11/26 09:55:21;;;;;;;14.53;10.43;;;7.90;99.90;;;;;;5033220;28;20288;-57
2022/11/26 09:58:04;;;;;;;14.60;10.50;;;7.90;99.90;;;;;;5034074;28;20466;-55
2022/11/26 10:00:35;;;;;;;14.20;10.23;;;7.90;99.90;;;;;;5033677;28;20179;-55
2022/11/26 10:03:09;;;;;;;15.13;11.17;;;8.00;99.90;;;;;;5033916;28;20645;-59
2022/11/26 10:05:47;;;;;;;14.03;10.40;;;7.90;99.90;;;;;;5033089;28;20179;-57
2022/11/26 10:08:28;;;;;;;14.77;11.30;;;8.80;99.90;;;;;;5033556;28;20203;-55
2022/11/26 10:10:59;;;;;;;14.57;11.40;;;8.10;99.90;;;;;;5033370;28;20168;-56
2022/11/26 10:13:43;;;;;;;13.70;11.60;;;8.10;99.90;;;;;;5033619;28;20192;-58
2022/11/26 10:16:14;;;;;;;16.83;12.33;;;8.00;99.90;;;;;;5033216;28;20172;-54
2022/11/26 10:19:06;;;;;;;17.47;12.87;;;8.00;99.90;;;;;;5033504;28;20176;-52
2022/11/26 10:21:38;;;;;;;14.80;12.27;;;8.10;99.90;;;;;;5032762;28;20529;-54
2022/11/26 10:24:29;;;;;;;18.00;11.87;;;8.20;99.90;;;;;;5032432;28;20597;-52
2022/11/26 10:26:58;;;;;;;17.50;12.87;;;8.40;99.90;;;;;;4970568;28;20186;-54
2022/11/26 10:29:39;;;;;;;14.53;11.23;;;8.30;99.90;;;;;;4955694;28;20182;-56
2022/11/26 10:32:25;;;;;;;17.07;12.03;;;8.40;99.90;;;;;;4971444;28;20248;-55
2022/11/26 10:34:57;;;;;;;15.57;12.57;;;8.50;99.90;;;;;;4970686;28;20718;-54
2022/11/26 10:37:24;;;;;;;19.77;13.97;;;8.20;99.90;;;;;;4970077;28;20182;-54
2022/11/26 10:39:58;;;;;;;19.37;13.77;;;7.90;99.90;;;;;;4970681;28;20312;-54
2022/11/26 10:42:24;;;;;;;18.93;12.57;;;7.80;99.90;;;;;;4970664;28;20174;-53
2022/11/26 10:44:51;;;;;;;18.47;13.37;;;7.80;99.90;;;;;;4970276;28;20190;-54
2022/11/26 10:47:30;;;;;;;18.10;13.10;;;8.00;99.90;;;;;;4971251;28;20241;-54
2022/11/26 10:50:02;;;;;;;16.20;13.40;;;8.00;99.90;;;;;;4971158;28;20176;-55
2022/11/26 10:52:30;;;;;;;17.70;12.77;;;8.20;99.90;;;;;;4970752;28;20178;-53
2022/11/26 10:55:24;;;;;;;16.53;12.27;;;8.50;99.90;;;;;;4971072;28;20746;-55
2022/11/26 10:58:01;;;;;;;14.63;12.93;;;8.60;99.90;;;;;;4971878;28;20186;-55
2022/11/26 11:00:35;;;;;;;15.17;12.67;;;8.80;99.90;;;;;;4971431;28;20740;-54
2022/11/26 11:03:02;;;;;;;16.50;13.13;;;8.60;99.90;;;;;;4976615;28;20193;-53
2022/11/26 11:05:28;;;;;;;17.23;13.10;;;8.60;99.90;;;;;;5031969;28;20263;-54
2022/11/26 11:07:54;;;;;;;18.13;13.67;;;8.50;99.90;;;;;;5031692;28;20211;-54
2022/11/26 11:10:24;;;;;;;14.97;11.90;;;8.80;99.90;;;;;;5032738;28;20207;-56
2022/11/26 11:13:08;;;;;;;18.80;12.33;;;8.90;99.90;;;;;;5029411;28;20199;-54
2022/11/26 11:15:34;;;;;;;14.47;11.80;;;8.90;99.90;;;;;;5031625;28;20196;-55
2022/11/26 11:18:03;;;;;;;13.33;11.87;;;8.80;99.90;;;;;;5031401;28;20171;-52
2022/11/26 11:20:35;;;;;;;14.63;11.50;;;7.90;99.90;;;;;;5032457;28;20670;-57
2022/11/26 11:23:02;;;;;;;15.93;12.40;;;9.30;99.90;;;;;;5031779;28;20199;-55
2022/11/26 11:25:31;;;;;;;12.83;11.50;;;9.50;99.90;;;;;;5032127;28;20250;-53
2022/11/26 11:28:07;;;;;;;15.10;11.53;;;9.40;99.90;;;;;;5031316;28;20318;-57
2022/11/26 11:30:36;;;;;;;13.13;11.13;;;9.20;99.90;;;;;;5031927;28;20317;-54
2022/11/26 11:33:28;;;;;;;11.87;10.57;;;9.00;99.90;;;;;;5031712;28;20198;-54
2022/11/26 11:36:01;;;;;;;16.23;11.20;;;9.20;99.90;;;;;;5028420;28;20226;-54
2022/11/26 11:38:32;;;;;;;14.43;11.00;;;9.70;99.90;;;;;;5031440;28;20171;-55
2022/11/26 11:41:02;;;;;;;14.00;11.60;;;9.80;99.90;;;;;;5031406;28;20593;-54
2022/11/26 11:43:28;;;;;;;14.97;11.23;;;9.30;99.90;;;;;;5031869;28;20502;-53
2022/11/26 11:46:02;;;;;;;13.53;10.73;;;9.70;99.90;;;;;;5031555;28;20229;-56
2022/11/26 11:48:47;;;;;;;12.87;10.63;;;9.50;99.90;;;;;;5031989;28;20175;-53
2022/11/26 11:51:15;;;;;;;12.37;11.00;;;9.70;99.90;;;;;;5031657;28;20254;-54
2022/11/26 11:53:46;;;;;;;13.67;10.97;;;9.50;99.90;;;;;;5030871;28;20722;-52
2022/11/26 11:56:11;;;;;;;13.37;10.33;;;9.50;99.90;;;;;;5031531;28;20164;-52
2022/11/26 11:58:37;;;;;;;12.13;10.67;;;;;;;;;;5031831;28;20275;-54
2022/11/26 12:01:03;;;;;;;10.57;9.47;;;9.70;99.90;;;;;;5031515;28;20648;-50
2022/11/26 12:03:39;;;;;;;12.30;9.83;;;10.10;99.90;;;;;;5031468;28;20831;-53
2022/11/26 12:06:22;;;;;;;12.93;10.03;;;9.80;99.90;;;;;;5030895;28;20194;-55
2022/11/26 12:09:29;;;;;;;14.80;10.93;;;9.80;99.90;;;;;;5031054;28;20222;-51
2022/11/26 12:12:22;;;;;;;10.97;9.57;;;9.70;99.90;;;;;;5031513;28;20207;-54
2022/11/26 12:15:02;;;;;;;13.73;10.17;;;10.30;99.90;;;;;;5031285;28;20222;-54
2022/11/26 12:17:33;;;;;;;10.77;8.70;;;9.90;99.90;;;;;;5031451;28;20649;-55
2022/11/26 12:20:22;;;;;;;10.17;7.60;;;9.60;99.90;;;;;;5031428;28;20653;-55
2022/11/26 12:23:14;;;;;;;21.03;16.27;;;9.40;99.90;;;;;;5008997;28;20215;-51
2022/11/26 12:25:40;;;;;;;12.13;9.77;;;;;;;;;;5008989;28;20180;-54
2022/11/26 12:28:17;;;;;;;11.97;9.43;;;9.80;99.90;;;;;;5050368;22;20601;-49
2022/11/26 12:30:54;;;;;;;8.87;7.97;;;9.70;99.90;;;;;;4993638;28;20231;-50
2022/11/26 12:33:41;;;;;;;10.30;8.23;;;9.30;99.90;;;;;;5011796;28;20259;-49
2022/11/26 12:36:19;;;;;;;11.10;8.63;;;10.00;99.90;;;;;;5011464;28;20223;-50
2022/11/26 12:38:53;;;;;;;10.53;7.70;;;10.70;99.90;;;;;;4992030;28;20165;-52
2022/11/26 12:41:26;;;;;;;9.77;8.07;;;10.20;99.90;;;;;;4974712;28;20173;-48
2022/11/26 12:44:18;;;;;;;8.67;7.40;;;10.20;99.90;;;;;;4991918;28;20184;-48
2022/11/26 12:46:53;;;;;;;10.57;7.63;;;9.90;99.90;;;;;;4990899;28;20193;-47
2022/11/26 12:49:30;;;;;;;10.50;7.77;;;9.50;99.90;;;;;;4992022;28;20180;-53
2022/11/26 12:52:16;;;;;;;11.53;7.93;;;9.50;99.90;;;;;;4991052;28;20680;-48
2022/11/26 12:55:02;;;;;;;10.73;7.93;;;9.50;99.90;;;;;;4991697;28;20196;-50